sensor_id;sensor_type;location;lat;lon;timestamp;P1;durP1;ratioP1;P2;durP2;ratioP2
20713;SDS011;10518;50.742;4.226;2022-12-07T00:01:14;5.30;;;2.63;;
20713;SDS011;10518;50.742;4.226;2022-12-07T00:03:42;10.20;;;3.93;;
20713;SDS011;10518;50.742;4.226;2022-12-07T00:06:10;4.77;;;3.03;;
20713;SDS011;10518;50.742;4.226;2022-12-07T00:08:36;5.67;;;2.93;;
20713;SDS011;10518;50.742;4.226;2022-12-07T00:11:04;9.27;;;3.10;;
20713;SDS011;10518;50.742;4.226;2022-12-07T00:13:30;3.80;;;2.13;;
20713;SDS011;10518;50.742;4.226;2022-12-07T00:15:59;5.23;;;2.93;;
20713;SDS011;10518;50.742;4.226;2022-12-07T00:18:29;5.10;;;2.63;;
20713;SDS011;10518;50.742;4.226;2022-12-07T00:20:59;4.60;;;2.40;;
20713;SDS011;10518;50.742;4.226;2022-12-07T00:23:29;3.73;;;3.07;;
20713;SDS011;10518;50.742;4.226;2022-12-07T00:25:55;6.30;;;2.60;;
20713;SDS011;10518;50.742;4.226;2022-12-07T00:28:20;6.60;;;2.73;;
20713;SDS011;10518;50.742;4.226;2022-12-07T00:30:46;6.50;;;2.97;;
20713;SDS011;10518;50.742;4.226;2022-12-07T00:33:11;7.23;;;3.23;;
20713;SDS011;10518;50.742;4.226;2022-12-07T00:35:37;3.33;;;2.37;;
20713;SDS011;10518;50.742;4.226;2022-12-07T00:38:02;4.53;;;2.77;;
20713;SDS011;10518;50.742;4.226;2022-12-07T00:40:28;3.23;;;2.50;;
20713;SDS011;10518;50.742;4.226;2022-12-07T00:42:53;4.93;;;2.10;;
20713;SDS011;10518;50.742;4.226;2022-12-07T00:45:19;3.13;;;2.13;;
20713;SDS011;10518;50.742;4.226;2022-12-07T00:47:44;6.00;;;2.40;;
20713;SDS011;10518;50.742;4.226;2022-12-07T00:50:10;4.50;;;2.23;;
20713;SDS011;10518;50.742;4.226;2022-12-07T00:52:35;2.73;;;2.20;;
20713;SDS011;10518;50.742;4.226;2022-12-07T00:55:01;10.33;;;2.77;;
20713;SDS011;10518;50.742;4.226;2022-12-07T00:57:27;3.27;;;2.27;;
20713;SDS011;10518;50.742;4.226;2022-12-07T00:59:52;4.07;;;2.40;;
20713;SDS011;10518;50.742;4.226;2022-12-07T01:02:22;5.20;;;3.03;;
20713;SDS011;10518;50.742;4.226;2022-12-07T01:04:48;6.07;;;2.67;;
20713;SDS011;10518;50.742;4.226;2022-12-07T01:07:13;3.17;;;2.30;;
20713;SDS011;10518;50.742;4.226;2022-12-07T01:09:39;6.07;;;2.57;;
20713;SDS011;10518;50.742;4.226;2022-12-07T01:12:04;14.67;;;2.77;;
20713;SDS011;10518;50.742;4.226;2022-12-07T01:14:30;3.77;;;2.27;;
20713;SDS011;10518;50.742;4.226;2022-12-07T01:16:55;5.40;;;2.87;;
20713;SDS011;10518;50.742;4.226;2022-12-07T01:19:21;6.50;;;2.90;;
20713;SDS011;10518;50.742;4.226;2022-12-07T01:21:47;3.70;;;3.10;;
20713;SDS011;10518;50.742;4.226;2022-12-07T01:24:12;3.23;;;2.07;;
20713;SDS011;10518;50.742;4.226;2022-12-07T01:26:38;5.67;;;2.63;;
20713;SDS011;10518;50.742;4.226;2022-12-07T01:29:03;3.50;;;1.80;;
20713;SDS011;10518;50.742;4.226;2022-12-07T01:31:29;2.17;;;1.97;;
20713;SDS011;10518;50.742;4.226;2022-12-07T01:33:56;3.83;;;2.73;;
20713;SDS011;10518;50.742;4.226;2022-12-07T01:36:24;3.93;;;2.63;;
20713;SDS011;10518;50.742;4.226;2022-12-07T01:38:51;4.17;;;2.63;;
20713;SDS011;10518;50.742;4.226;2022-12-07T01:41:21;3.63;;;1.90;;
20713;SDS011;10518;50.742;4.226;2022-12-07T01:46:37;6.33;;;3.17;;
20713;SDS011;10518;50.742;4.226;2022-12-07T01:49:08;2.60;;;2.20;;
20713;SDS011;10518;50.742;4.226;2022-12-07T01:51:37;3.47;;;1.90;;
20713;SDS011;10518;50.742;4.226;2022-12-07T01:54:06;5.20;;;2.50;;
20713;SDS011;10518;50.742;4.226;2022-12-07T01:56:32;4.47;;;2.43;;
20713;SDS011;10518;50.742;4.226;2022-12-07T01:58:58;5.77;;;2.57;;
20713;SDS011;10518;50.742;4.226;2022-12-07T02:01:25;4.37;;;2.67;;
20713;SDS011;10518;50.742;4.226;2022-12-07T02:03:50;5.93;;;2.20;;
20713;SDS011;10518;50.742;4.226;2022-12-07T02:06:18;4.77;;;2.63;;
20713;SDS011;10518;50.742;4.226;2022-12-07T02:08:47;2.30;;;2.10;;
20713;SDS011;10518;50.742;4.226;2022-12-07T02:11:12;6.47;;;2.60;;
20713;SDS011;10518;50.742;4.226;2022-12-07T02:13:39;2.93;;;2.27;;
20713;SDS011;10518;50.742;4.226;2022-12-07T02:21:54;3.50;;;1.73;;
20713;SDS011;10518;50.742;4.226;2022-12-07T02:30:19;6.23;;;2.77;;
20713;SDS011;10518;50.742;4.226;2022-12-07T02:32:49;10.87;;;2.33;;
20713;SDS011;10518;50.742;4.226;2022-12-07T02:35:30;7.83;;;3.53;;
20713;SDS011;10518;50.742;4.226;2022-12-07T02:38:02;9.87;;;3.57;;
20713;SDS011;10518;50.742;4.226;2022-12-07T02:43:07;6.60;;;3.83;;
20713;SDS011;10518;50.742;4.226;2022-12-07T02:45:39;3.67;;;2.83;;
20713;SDS011;10518;50.742;4.226;2022-12-07T02:48:07;7.67;;;2.30;;
20713;SDS011;10518;50.742;4.226;2022-12-07T02:50:35;3.30;;;2.53;;
20713;SDS011;10518;50.742;4.226;2022-12-07T02:53:00;7.90;;;3.20;;
20713;SDS011;10518;50.742;4.226;2022-12-07T02:55:30;5.53;;;2.87;;
20713;SDS011;10518;50.742;4.226;2022-12-07T02:58:18;5.43;;;3.20;;
20713;SDS011;10518;50.742;4.226;2022-12-07T03:01:04;6.73;;;2.33;;
20713;SDS011;10518;50.742;4.226;2022-12-07T03:03:42;6.73;;;2.77;;
20713;SDS011;10518;50.742;4.226;2022-12-07T03:06:20;3.77;;;3.13;;
20713;SDS011;10518;50.742;4.226;2022-12-07T03:14:33;4.13;;;2.37;;
20713;SDS011;10518;50.742;4.226;2022-12-07T03:17:14;4.10;;;3.37;;
20713;SDS011;10518;50.742;4.226;2022-12-07T03:19:44;4.17;;;2.93;;
20713;SDS011;10518;50.742;4.226;2022-12-07T03:22:12;3.67;;;2.43;;
20713;SDS011;10518;50.742;4.226;2022-12-07T03:24:41;6.27;;;2.17;;
20713;SDS011;10518;50.742;4.226;2022-12-07T03:27:13;3.53;;;2.33;;
20713;SDS011;10518;50.742;4.226;2022-12-07T03:29:49;6.13;;;3.20;;
20713;SDS011;10518;50.742;4.226;2022-12-07T03:35:01;3.17;;;2.13;;
20713;SDS011;10518;50.742;4.226;2022-12-07T03:37:33;10.80;;;2.67;;
20713;SDS011;10518;50.742;4.226;2022-12-07T03:42:50;3.60;;;2.60;;
20713;SDS011;10518;50.742;4.226;2022-12-07T03:45:19;4.23;;;2.70;;
20713;SDS011;10518;50.742;4.226;2022-12-07T03:50:32;2.70;;;2.33;;
20713;SDS011;10518;50.742;4.226;2022-12-07T03:53:15;4.77;;;2.93;;
20713;SDS011;10518;50.742;4.226;2022-12-07T03:55:47;4.10;;;2.77;;
20713;SDS011;10518;50.742;4.226;2022-12-07T03:58:15;5.50;;;2.67;;
20713;SDS011;10518;50.742;4.226;2022-12-07T04:00:44;2.77;;;2.07;;
20713;SDS011;10518;50.742;4.226;2022-12-07T04:03:11;4.33;;;2.63;;
20713;SDS011;10518;50.742;4.226;2022-12-07T04:05:37;3.23;;;1.83;;
20713;SDS011;10518;50.742;4.226;2022-12-07T04:08:04;5.33;;;2.17;;
20713;SDS011;10518;50.742;4.226;2022-12-07T04:10:29;4.17;;;2.30;;
20713;SDS011;10518;50.742;4.226;2022-12-07T04:12:55;5.73;;;2.87;;
20713;SDS011;10518;50.742;4.226;2022-12-07T04:15:21;3.40;;;2.30;;
20713;SDS011;10518;50.742;4.226;2022-12-07T04:17:47;7.80;;;2.20;;
20713;SDS011;10518;50.742;4.226;2022-12-07T04:20:12;5.53;;;2.87;;
20713;SDS011;10518;50.742;4.226;2022-12-07T04:22:38;2.77;;;2.43;;
20713;SDS011;10518;50.742;4.226;2022-12-07T04:25:04;6.40;;;2.97;;
20713;SDS011;10518;50.742;4.226;2022-12-07T04:27:30;5.17;;;2.83;;
20713;SDS011;10518;50.742;4.226;2022-12-07T04:29:55;6.53;;;3.13;;
20713;SDS011;10518;50.742;4.226;2022-12-07T04:32:21;5.70;;;3.00;;
20713;SDS011;10518;50.742;4.226;2022-12-07T04:34:47;5.43;;;2.33;;
20713;SDS011;10518;50.742;4.226;2022-12-07T04:37:13;3.50;;;2.43;;
20713;SDS011;10518;50.742;4.226;2022-12-07T04:39:38;4.00;;;2.20;;
20713;SDS011;10518;50.742;4.226;2022-12-07T04:42:04;3.60;;;2.07;;
20713;SDS011;10518;50.742;4.226;2022-12-07T04:44:30;5.83;;;2.80;;
20713;SDS011;10518;50.742;4.226;2022-12-07T04:46:55;2.23;;;1.47;;
20713;SDS011;10518;50.742;4.226;2022-12-07T04:49:22;3.73;;;2.53;;
20713;SDS011;10518;50.742;4.226;2022-12-07T04:51:48;2.53;;;2.10;;
20713;SDS011;10518;50.742;4.226;2022-12-07T04:54:14;5.93;;;2.07;;
20713;SDS011;10518;50.742;4.226;2022-12-07T04:56:40;5.07;;;2.10;;
20713;SDS011;10518;50.742;4.226;2022-12-07T04:59:06;2.00;;;1.90;;
20713;SDS011;10518;50.742;4.226;2022-12-07T05:01:32;6.43;;;2.60;;
20713;SDS011;10518;50.742;4.226;2022-12-07T05:03:58;5.13;;;2.73;;
20713;SDS011;10518;50.742;4.226;2022-12-07T05:06:24;3.70;;;2.57;;
20713;SDS011;10518;50.742;4.226;2022-12-07T05:08:50;2.83;;;2.10;;
20713;SDS011;10518;50.742;4.226;2022-12-07T05:11:16;2.20;;;2.00;;
20713;SDS011;10518;50.742;4.226;2022-12-07T05:14:03;2.27;;;1.90;;
20713;SDS011;10518;50.742;4.226;2022-12-07T05:16:50;3.37;;;2.10;;
20713;SDS011;10518;50.742;4.226;2022-12-07T05:19:16;5.47;;;2.30;;
20713;SDS011;10518;50.742;4.226;2022-12-07T05:21:43;2.03;;;1.47;;
20713;SDS011;10518;50.742;4.226;2022-12-07T05:24:10;4.10;;;2.57;;
20713;SDS011;10518;50.742;4.226;2022-12-07T05:26:37;3.37;;;2.20;;
20713;SDS011;10518;50.742;4.226;2022-12-07T05:29:03;3.77;;;1.50;;
20713;SDS011;10518;50.742;4.226;2022-12-07T05:31:29;2.40;;;1.63;;
20713;SDS011;10518;50.742;4.226;2022-12-07T05:33:54;2.50;;;2.20;;
20713;SDS011;10518;50.742;4.226;2022-12-07T05:36:20;6.30;;;2.83;;
20713;SDS011;10518;50.742;4.226;2022-12-07T05:38:47;3.90;;;3.07;;
20713;SDS011;10518;50.742;4.226;2022-12-07T05:41:13;4.07;;;2.20;;
20713;SDS011;10518;50.742;4.226;2022-12-07T05:43:59;3.27;;;2.10;;
20713;SDS011;10518;50.742;4.226;2022-12-07T05:46:25;2.87;;;2.00;;
20713;SDS011;10518;50.742;4.226;2022-12-07T05:48:51;4.50;;;2.17;;
20713;SDS011;10518;50.742;4.226;2022-12-07T05:51:16;3.83;;;1.77;;
20713;SDS011;10518;50.742;4.226;2022-12-07T05:53:43;2.30;;;2.00;;
20713;SDS011;10518;50.742;4.226;2022-12-07T05:56:09;5.10;;;3.30;;
20713;SDS011;10518;50.742;4.226;2022-12-07T05:58:34;4.63;;;2.17;;
20713;SDS011;10518;50.742;4.226;2022-12-07T06:01:19;4.60;;;3.07;;
20713;SDS011;10518;50.742;4.226;2022-12-07T06:03:44;5.57;;;2.73;;
20713;SDS011;10518;50.742;4.226;2022-12-07T06:06:10;4.60;;;2.80;;
20713;SDS011;10518;50.742;4.226;2022-12-07T06:08:36;2.53;;;1.83;;
20713;SDS011;10518;50.742;4.226;2022-12-07T06:11:01;2.40;;;2.00;;
20713;SDS011;10518;50.742;4.226;2022-12-07T06:13:46;3.73;;;2.40;;
20713;SDS011;10518;50.742;4.226;2022-12-07T06:16:11;3.27;;;2.13;;
20713;SDS011;10518;50.742;4.226;2022-12-07T06:18:37;2.87;;;1.80;;
20713;SDS011;10518;50.742;4.226;2022-12-07T06:21:02;4.17;;;2.80;;
20713;SDS011;10518;50.742;4.226;2022-12-07T06:23:28;4.60;;;2.77;;
20713;SDS011;10518;50.742;4.226;2022-12-07T06:25:53;2.90;;;2.17;;
20713;SDS011;10518;50.742;4.226;2022-12-07T06:28:19;4.43;;;2.20;;
20713;SDS011;10518;50.742;4.226;2022-12-07T06:30:45;3.70;;;3.20;;
20713;SDS011;10518;50.742;4.226;2022-12-07T06:33:10;2.93;;;2.30;;
20713;SDS011;10518;50.742;4.226;2022-12-07T06:35:36;2.80;;;2.17;;
20713;SDS011;10518;50.742;4.226;2022-12-07T06:38:01;3.07;;;2.53;;
20713;SDS011;10518;50.742;4.226;2022-12-07T06:40:27;2.90;;;2.43;;
20713;SDS011;10518;50.742;4.226;2022-12-07T06:42:53;2.67;;;2.40;;
20713;SDS011;10518;50.742;4.226;2022-12-07T06:45:18;3.63;;;2.70;;
20713;SDS011;10518;50.742;4.226;2022-12-07T06:47:44;5.17;;;2.73;;
20713;SDS011;10518;50.742;4.226;2022-12-07T06:50:09;8.93;;;3.60;;
20713;SDS011;10518;50.742;4.226;2022-12-07T06:52:35;3.87;;;2.40;;
20713;SDS011;10518;50.742;4.226;2022-12-07T06:55:00;5.37;;;2.97;;
20713;SDS011;10518;50.742;4.226;2022-12-07T06:57:26;3.70;;;2.40;;
20713;SDS011;10518;50.742;4.226;2022-12-07T06:59:52;3.73;;;2.30;;
20713;SDS011;10518;50.742;4.226;2022-12-07T07:02:17;4.10;;;3.00;;
20713;SDS011;10518;50.742;4.226;2022-12-07T07:04:43;3.30;;;1.90;;
20713;SDS011;10518;50.742;4.226;2022-12-07T07:07:08;4.13;;;2.30;;
20713;SDS011;10518;50.742;4.226;2022-12-07T07:09:34;2.30;;;2.10;;
20713;SDS011;10518;50.742;4.226;2022-12-07T07:11:59;5.20;;;3.37;;
20713;SDS011;10518;50.742;4.226;2022-12-07T07:14:25;3.87;;;2.13;;
20713;SDS011;10518;50.742;4.226;2022-12-07T07:16:51;5.03;;;2.97;;
20713;SDS011;10518;50.742;4.226;2022-12-07T07:19:16;3.00;;;2.03;;
20713;SDS011;10518;50.742;4.226;2022-12-07T07:21:42;6.17;;;3.83;;
20713;SDS011;10518;50.742;4.226;2022-12-07T07:24:07;5.10;;;3.40;;
20713;SDS011;10518;50.742;4.226;2022-12-07T07:26:33;4.37;;;2.77;;
20713;SDS011;10518;50.742;4.226;2022-12-07T07:28:59;2.77;;;2.40;;
20713;SDS011;10518;50.742;4.226;2022-12-07T07:31:24;6.30;;;3.83;;
20713;SDS011;10518;50.742;4.226;2022-12-07T07:33:50;4.17;;;3.70;;
20713;SDS011;10518;50.742;4.226;2022-12-07T07:36:15;4.13;;;2.60;;
20713;SDS011;10518;50.742;4.226;2022-12-07T07:38:41;4.47;;;2.63;;
20713;SDS011;10518;50.742;4.226;2022-12-07T07:41:06;4.20;;;2.57;;
20713;SDS011;10518;50.742;4.226;2022-12-07T07:43:32;7.33;;;3.30;;
20713;SDS011;10518;50.742;4.226;2022-12-07T07:45:57;2.30;;;1.93;;
20713;SDS011;10518;50.742;4.226;2022-12-07T07:48:23;3.43;;;2.93;;
20713;SDS011;10518;50.742;4.226;2022-12-07T07:50:50;4.90;;;2.40;;
20713;SDS011;10518;50.742;4.226;2022-12-07T07:53:16;8.53;;;4.10;;
20713;SDS011;10518;50.742;4.226;2022-12-07T07:55:49;5.47;;;3.07;;
20713;SDS011;10518;50.742;4.226;2022-12-07T07:58:16;8.00;;;3.20;;
20713;SDS011;10518;50.742;4.226;2022-12-07T08:00:41;4.80;;;2.77;;
20713;SDS011;10518;50.742;4.226;2022-12-07T08:03:07;4.27;;;2.80;;
20713;SDS011;10518;50.742;4.226;2022-12-07T08:05:32;4.47;;;2.80;;
20713;SDS011;10518;50.742;4.226;2022-12-07T08:07:58;2.93;;;2.53;;
20713;SDS011;10518;50.742;4.226;2022-12-07T08:10:24;5.97;;;2.50;;
20713;SDS011;10518;50.742;4.226;2022-12-07T08:12:49;6.23;;;2.73;;
20713;SDS011;10518;50.742;4.226;2022-12-07T08:15:33;5.43;;;2.67;;
20713;SDS011;10518;50.742;4.226;2022-12-07T08:18:01;5.20;;;2.73;;
20713;SDS011;10518;50.742;4.226;2022-12-07T08:20:29;2.80;;;2.00;;
20713;SDS011;10518;50.742;4.226;2022-12-07T08:22:55;4.50;;;2.57;;
20713;SDS011;10518;50.742;4.226;2022-12-07T08:25:21;3.63;;;2.50;;
20713;SDS011;10518;50.742;4.226;2022-12-07T08:27:47;3.77;;;2.53;;
20713;SDS011;10518;50.742;4.226;2022-12-07T08:30:13;3.63;;;2.20;;
20713;SDS011;10518;50.742;4.226;2022-12-07T08:32:39;5.27;;;2.43;;
20713;SDS011;10518;50.742;4.226;2022-12-07T08:35:04;3.07;;;2.20;;
20713;SDS011;10518;50.742;4.226;2022-12-07T08:37:31;4.33;;;2.93;;
20713;SDS011;10518;50.742;4.226;2022-12-07T08:39:57;6.83;;;2.37;;
20713;SDS011;10518;50.742;4.226;2022-12-07T08:42:22;2.20;;;2.00;;
20713;SDS011;10518;50.742;4.226;2022-12-07T08:44:52;4.30;;;2.33;;
20713;SDS011;10518;50.742;4.226;2022-12-07T08:47:18;6.90;;;2.80;;
20713;SDS011;10518;50.742;4.226;2022-12-07T08:49:45;3.40;;;2.57;;
20713;SDS011;10518;50.742;4.226;2022-12-07T08:52:12;2.47;;;1.97;;
20713;SDS011;10518;50.742;4.226;2022-12-07T08:54:38;3.53;;;2.37;;
20713;SDS011;10518;50.742;4.226;2022-12-07T08:57:05;3.43;;;2.53;;
20713;SDS011;10518;50.742;4.226;2022-12-07T08:59:32;7.27;;;3.00;;
20713;SDS011;10518;50.742;4.226;2022-12-07T09:01:59;7.10;;;2.23;;
20713;SDS011;10518;50.742;4.226;2022-12-07T09:04:25;6.03;;;2.80;;
20713;SDS011;10518;50.742;4.226;2022-12-07T09:06:51;8.60;;;2.93;;
20713;SDS011;10518;50.742;4.226;2022-12-07T09:09:16;8.17;;;3.07;;
20713;SDS011;10518;50.742;4.226;2022-12-07T09:11:42;4.47;;;2.93;;
20713;SDS011;10518;50.742;4.226;2022-12-07T09:14:10;4.40;;;2.87;;
20713;SDS011;10518;50.742;4.226;2022-12-07T09:16:35;4.20;;;2.80;;
20713;SDS011;10518;50.742;4.226;2022-12-07T09:19:01;2.27;;;2.00;;
20713;SDS011;10518;50.742;4.226;2022-12-07T09:21:27;3.93;;;2.50;;
20713;SDS011;10518;50.742;4.226;2022-12-07T09:23:52;4.00;;;2.73;;
20713;SDS011;10518;50.742;4.226;2022-12-07T09:26:18;2.60;;;2.10;;
20713;SDS011;10518;50.742;4.226;2022-12-07T09:28:43;10.30;;;2.67;;
20713;SDS011;10518;50.742;4.226;2022-12-07T09:31:09;3.33;;;2.03;;
20713;SDS011;10518;50.742;4.226;2022-12-07T09:33:34;2.13;;;1.90;;
20713;SDS011;10518;50.742;4.226;2022-12-07T09:36:00;5.83;;;4.13;;
20713;SDS011;10518;50.742;4.226;2022-12-07T09:38:26;5.40;;;3.17;;
20713;SDS011;10518;50.742;4.226;2022-12-07T09:40:51;4.10;;;3.00;;
20713;SDS011;10518;50.742;4.226;2022-12-07T09:43:20;6.97;;;3.90;;
20713;SDS011;10518;50.742;4.226;2022-12-07T09:45:53;4.67;;;3.17;;
20713;SDS011;10518;50.742;4.226;2022-12-07T09:48:21;2.43;;;2.23;;
20713;SDS011;10518;50.742;4.226;2022-12-07T09:50:58;4.60;;;2.23;;
20713;SDS011;10518;50.742;4.226;2022-12-07T09:53:26;5.97;;;2.37;;
20713;SDS011;10518;50.742;4.226;2022-12-07T09:55:55;3.40;;;2.23;;
20713;SDS011;10518;50.742;4.226;2022-12-07T09:58:25;4.07;;;2.37;;
20713;SDS011;10518;50.742;4.226;2022-12-07T10:00:56;8.47;;;2.57;;
20713;SDS011;10518;50.742;4.226;2022-12-07T10:03:37;5.03;;;3.20;;
20713;SDS011;10518;50.742;4.226;2022-12-07T10:06:05;3.67;;;1.90;;
20713;SDS011;10518;50.742;4.226;2022-12-07T10:08:32;3.30;;;2.13;;
20713;SDS011;10518;50.742;4.226;2022-12-07T10:10:59;3.63;;;2.30;;
20713;SDS011;10518;50.742;4.226;2022-12-07T10:16:03;3.83;;;2.03;;
20713;SDS011;10518;50.742;4.226;2022-12-07T10:18:36;1.87;;;1.67;;
20713;SDS011;10518;50.742;4.226;2022-12-07T10:23:58;6.33;;;2.67;;
20713;SDS011;10518;50.742;4.226;2022-12-07T10:26:38;2.30;;;1.97;;
20713;SDS011;10518;50.742;4.226;2022-12-07T10:31:43;2.90;;;1.40;;
20713;SDS011;10518;50.742;4.226;2022-12-07T10:36:49;2.70;;;2.13;;
20713;SDS011;10518;50.742;4.226;2022-12-07T10:39:20;8.37;;;2.70;;
20713;SDS011;10518;50.742;4.226;2022-12-07T10:44:24;1.53;;;1.43;;
20713;SDS011;10518;50.742;4.226;2022-12-07T10:52:13;2.13;;;1.80;;
20713;SDS011;10518;50.742;4.226;2022-12-07T10:54:54;1.73;;;1.23;;
20713;SDS011;10518;50.742;4.226;2022-12-07T10:57:27;5.40;;;2.47;;
20713;SDS011;10518;50.742;4.226;2022-12-07T11:14:36;1.87;;;1.50;;
20713;SDS011;10518;50.742;4.226;2022-12-07T11:17:17;3.37;;;2.40;;
20713;SDS011;10518;50.742;4.226;2022-12-07T11:28:01;2.37;;;1.90;;
20713;SDS011;10518;50.742;4.226;2022-12-07T11:30:38;4.60;;;2.30;;
20713;SDS011;10518;50.742;4.226;2022-12-07T11:33:29;4.10;;;2.67;;
20713;SDS011;10518;50.742;4.226;2022-12-07T11:38:50;1.77;;;1.33;;
20713;SDS011;10518;50.742;4.226;2022-12-07T11:41:21;1.93;;;1.43;;
20713;SDS011;10518;50.742;4.226;2022-12-07T11:46:42;3.20;;;1.40;;
20713;SDS011;10518;50.742;4.226;2022-12-07T11:49:24;2.43;;;1.13;;
20713;SDS011;10518;50.742;4.226;2022-12-07T11:51:55;1.00;;;1.00;;
20713;SDS011;10518;50.742;4.226;2022-12-07T11:54:27;3.37;;;1.13;;
20713;SDS011;10518;50.742;4.226;2022-12-07T11:56:56;6.23;;;0.80;;
20713;SDS011;10518;50.742;4.226;2022-12-07T11:59:31;1.67;;;1.00;;
20713;SDS011;10518;50.742;4.226;2022-12-07T12:02:13;2.53;;;1.33;;
20713;SDS011;10518;50.742;4.226;2022-12-07T12:04:45;1.37;;;0.77;;
20713;SDS011;10518;50.742;4.226;2022-12-07T12:07:14;1.40;;;0.80;;
20713;SDS011;10518;50.742;4.226;2022-12-07T12:09:52;1.70;;;1.33;;
20713;SDS011;10518;50.742;4.226;2022-12-07T12:12:48;0.60;;;0.60;;
20713;SDS011;10518;50.742;4.226;2022-12-07T12:16:02;6.13;;;1.90;;
20713;SDS011;10518;50.742;4.226;2022-12-07T12:19:03;0.90;;;0.90;;
20713;SDS011;10518;50.742;4.226;2022-12-07T12:21:40;0.97;;;0.80;;
20713;SDS011;10518;50.742;4.226;2022-12-07T12:24:27;0.70;;;0.70;;
20713;SDS011;10518;50.742;4.226;2022-12-07T12:27:01;0.90;;;0.73;;
20713;SDS011;10518;50.742;4.226;2022-12-07T12:29:37;1.37;;;1.10;;
20713;SDS011;10518;50.742;4.226;2022-12-07T12:37:42;0.67;;;0.67;;
20713;SDS011;10518;50.742;4.226;2022-12-07T12:42:44;0.60;;;0.60;;
20713;SDS011;10518;50.742;4.226;2022-12-07T12:45:23;3.87;;;0.87;;
20713;SDS011;10518;50.742;4.226;2022-12-07T12:47:59;0.73;;;0.70;;
20713;SDS011;10518;50.742;4.226;2022-12-07T12:50:32;1.70;;;0.97;;
20713;SDS011;10518;50.742;4.226;2022-12-07T12:53:21;1.80;;;0.77;;
20713;SDS011;10518;50.742;4.226;2022-12-07T13:00:42;1.27;;;1.00;;
20713;SDS011;10518;50.742;4.226;2022-12-07T13:03:21;1.33;;;1.23;;
20713;SDS011;10518;50.742;4.226;2022-12-07T13:06:06;5.60;;;1.73;;
20713;SDS011;10518;50.742;4.226;2022-12-07T13:09:00;0.90;;;0.90;;
20713;SDS011;10518;50.742;4.226;2022-12-07T13:11:36;2.03;;;1.20;;
20713;SDS011;10518;50.742;4.226;2022-12-07T13:17:10;1.23;;;1.10;;
20713;SDS011;10518;50.742;4.226;2022-12-07T13:19:55;0.80;;;0.80;;
20713;SDS011;10518;50.742;4.226;2022-12-07T13:24:56;1.60;;;1.50;;
20713;SDS011;10518;50.742;4.226;2022-12-07T13:27:41;1.10;;;1.00;;
20713;SDS011;10518;50.742;4.226;2022-12-07T13:30:16;1.63;;;1.17;;
20713;SDS011;10518;50.742;4.226;2022-12-07T13:32:43;2.23;;;1.83;;
20713;SDS011;10518;50.742;4.226;2022-12-07T13:35:27;1.10;;;1.00;;
20713;SDS011;10518;50.742;4.226;2022-12-07T13:38:16;1.93;;;1.23;;
20713;SDS011;10518;50.742;4.226;2022-12-07T13:41:26;2.93;;;1.40;;
20713;SDS011;10518;50.742;4.226;2022-12-07T13:43:53;2.30;;;0.80;;
20713;SDS011;10518;50.742;4.226;2022-12-07T13:49:23;1.53;;;0.70;;
20713;SDS011;10518;50.742;4.226;2022-12-07T13:51:54;1.17;;;1.07;;
20713;SDS011;10518;50.742;4.226;2022-12-07T13:54:31;4.03;;;1.80;;
20713;SDS011;10518;50.742;4.226;2022-12-07T13:56:57;2.73;;;1.87;;
20713;SDS011;10518;50.742;4.226;2022-12-07T13:59:24;1.40;;;0.97;;
20713;SDS011;10518;50.742;4.226;2022-12-07T14:01:51;1.70;;;1.30;;
20713;SDS011;10518;50.742;4.226;2022-12-07T14:07:00;1.27;;;1.10;;
20713;SDS011;10518;50.742;4.226;2022-12-07T14:09:52;0.80;;;0.73;;
20713;SDS011;10518;50.742;4.226;2022-12-07T14:12:24;1.73;;;0.60;;
20713;SDS011;10518;50.742;4.226;2022-12-07T14:14:50;11.43;;;1.33;;
20713;SDS011;10518;50.742;4.226;2022-12-07T14:17:18;0.77;;;0.77;;
20713;SDS011;10518;50.742;4.226;2022-12-07T14:19:46;1.03;;;0.93;;
20713;SDS011;10518;50.742;4.226;2022-12-07T14:22:33;1.03;;;0.90;;
20713;SDS011;10518;50.742;4.226;2022-12-07T14:25:09;2.00;;;1.20;;
20713;SDS011;10518;50.742;4.226;2022-12-07T14:27:37;1.00;;;0.90;;
20713;SDS011;10518;50.742;4.226;2022-12-07T14:30:03;2.10;;;1.43;;
20713;SDS011;10518;50.742;4.226;2022-12-07T14:32:30;1.50;;;0.93;;
20713;SDS011;10518;50.742;4.226;2022-12-07T14:34:57;2.73;;;1.03;;
20713;SDS011;10518;50.742;4.226;2022-12-07T14:37:23;3.13;;;1.90;;
20713;SDS011;10518;50.742;4.226;2022-12-07T14:39:49;2.20;;;1.40;;
20713;SDS011;10518;50.742;4.226;2022-12-07T14:42:15;1.37;;;1.17;;
20713;SDS011;10518;50.742;4.226;2022-12-07T14:44:41;1.40;;;1.23;;
20713;SDS011;10518;50.742;4.226;2022-12-07T14:47:09;1.40;;;0.93;;
20713;SDS011;10518;50.742;4.226;2022-12-07T14:49:35;2.33;;;1.20;;
20713;SDS011;10518;50.742;4.226;2022-12-07T14:52:01;0.83;;;0.80;;
20713;SDS011;10518;50.742;4.226;2022-12-07T14:54:26;1.90;;;1.30;;
20713;SDS011;10518;50.742;4.226;2022-12-07T14:56:56;1.23;;;0.93;;
20713;SDS011;10518;50.742;4.226;2022-12-07T14:59:22;6.20;;;1.00;;
20713;SDS011;10518;50.742;4.226;2022-12-07T15:01:47;0.77;;;0.77;;
20713;SDS011;10518;50.742;4.226;2022-12-07T15:04:13;0.50;;;0.50;;
20713;SDS011;10518;50.742;4.226;2022-12-07T15:06:38;2.00;;;0.90;;
20713;SDS011;10518;50.742;4.226;2022-12-07T15:09:04;0.40;;;0.40;;
20713;SDS011;10518;50.742;4.226;2022-12-07T15:11:30;2.60;;;0.73;;
20713;SDS011;10518;50.742;4.226;2022-12-07T15:13:55;0.40;;;0.40;;
20713;SDS011;10518;50.742;4.226;2022-12-07T15:16:33;0.40;;;0.40;;
20713;SDS011;10518;50.742;4.226;2022-12-07T15:18:59;0.40;;;0.40;;
20713;SDS011;10518;50.742;4.226;2022-12-07T15:21:25;0.30;;;0.30;;
20713;SDS011;10518;50.742;4.226;2022-12-07T15:23:51;3.23;;;0.60;;
20713;SDS011;10518;50.742;4.226;2022-12-07T15:26:16;0.97;;;0.83;;
20713;SDS011;10518;50.742;4.226;2022-12-07T15:28:42;1.93;;;0.53;;
20713;SDS011;10518;50.742;4.226;2022-12-07T15:31:14;2.17;;;0.83;;
20713;SDS011;10518;50.742;4.226;2022-12-07T15:33:41;3.47;;;0.83;;
20713;SDS011;10518;50.742;4.226;2022-12-07T15:36:07;1.03;;;0.83;;
20713;SDS011;10518;50.742;4.226;2022-12-07T15:38:40;2.47;;;1.33;;
20713;SDS011;10518;50.742;4.226;2022-12-07T15:41:06;1.20;;;1.10;;
20713;SDS011;10518;50.742;4.226;2022-12-07T15:43:31;0.70;;;0.70;;
20713;SDS011;10518;50.742;4.226;2022-12-07T15:46:15;6.00;;;2.63;;
20713;SDS011;10518;50.742;4.226;2022-12-07T15:48:41;1.30;;;1.00;;
20713;SDS011;10518;50.742;4.226;2022-12-07T15:51:07;2.33;;;0.97;;
20713;SDS011;10518;50.742;4.226;2022-12-07T15:53:34;1.43;;;1.33;;
20713;SDS011;10518;50.742;4.226;2022-12-07T15:56:00;0.77;;;0.73;;
20713;SDS011;10518;50.742;4.226;2022-12-07T15:58:26;1.23;;;1.00;;
20713;SDS011;10518;50.742;4.226;2022-12-07T16:00:52;0.63;;;0.63;;
20713;SDS011;10518;50.742;4.226;2022-12-07T16:03:17;0.63;;;0.63;;
20713;SDS011;10518;50.742;4.226;2022-12-07T16:05:52;1.23;;;1.03;;
20713;SDS011;10518;50.742;4.226;2022-12-07T16:08:18;0.90;;;0.80;;
20713;SDS011;10518;50.742;4.226;2022-12-07T16:10:44;1.90;;;1.03;;
20713;SDS011;10518;50.742;4.226;2022-12-07T16:13:10;0.60;;;0.60;;
20713;SDS011;10518;50.742;4.226;2022-12-07T16:15:40;0.87;;;0.67;;
20713;SDS011;10518;50.742;4.226;2022-12-07T16:18:06;0.60;;;0.60;;
20713;SDS011;10518;50.742;4.226;2022-12-07T16:20:32;6.80;;;1.07;;
20713;SDS011;10518;50.742;4.226;2022-12-07T16:22:57;1.73;;;0.60;;
20713;SDS011;10518;50.742;4.226;2022-12-07T16:25:23;0.93;;;0.90;;
20713;SDS011;10518;50.742;4.226;2022-12-07T16:27:49;1.20;;;0.73;;
20713;SDS011;10518;50.742;4.226;2022-12-07T16:30:15;0.80;;;0.80;;
20713;SDS011;10518;50.742;4.226;2022-12-07T16:32:41;1.07;;;1.00;;
20713;SDS011;10518;50.742;4.226;2022-12-07T16:35:07;1.43;;;1.07;;
20713;SDS011;10518;50.742;4.226;2022-12-07T16:37:33;3.00;;;1.97;;
20713;SDS011;10518;50.742;4.226;2022-12-07T16:39:59;5.57;;;2.67;;
20713;SDS011;10518;50.742;4.226;2022-12-07T16:42:25;1.77;;;1.20;;